Laurel Hill, North Carolina
Current Conditions -  °F | °C
As of 2:52 AM on Tuesday 27 Jan 2015 (Local Time) from KMEB Reporting Station
Overcast Overcast  
Wind Chill: 33°   Ceiling: 4100
Heat Index: 40°   Visibility: 10mi
Dew Point: 27°   Wind: 12mph
Humidity: 60%   Direction: 320°NW
Pressure: 29.74"   Gusts: 18mph
Location:  34.81°N, 79.55°W
Report Text: KMEB 270752Z AUTO 32010G16KT 10SM OVC041 04/M03 A2974 RMK AO2 SLP070 T00441028
Loading
Personal Weather Stations






























Interactive Weather Map New forecast layout! Learn more

10-Day Weather Forecast

Advertisements
Track Severe Weather on mobile